sensor_id;sensor_type;location;lat;lon;timestamp;pressure;altitude;pressure_sealevel;temperature;humidity
59829;BME280;45708;51.848;107.620;2023-04-28T00:00:00;94961.53;;;12.12;34.54
59829;BME280;45708;51.848;107.620;2023-04-28T00:05:01;94968.88;;;13.14;34.60
59829;BME280;45708;51.848;107.620;2023-04-28T00:10:02;94947.94;;;13.01;33.66
59829;BME280;45708;51.848;107.620;2023-04-28T00:15:03;94961.88;;;13.36;33.21
59829;BME280;45708;51.848;107.620;2023-04-28T00:20:05;94953.78;;;13.77;32.00
59829;BME280;45708;51.848;107.620;2023-04-28T00:25:07;94949.69;;;14.03;31.30
59829;BME280;45708;51.848;107.620;2023-04-28T00:30:08;94929.19;;;15.02;30.56
59829;BME280;45708;51.848;107.620;2023-04-28T00:35:09;94946.88;;;15.18;29.52
59829;BME280;45708;51.848;107.620;2023-04-28T00:40:10;94938.56;;;15.37;28.72
59829;BME280;45708;51.848;107.620;2023-04-28T00:45:11;94936.38;;;15.29;28.14
59829;BME280;45708;51.848;107.620;2023-04-28T00:50:12;94932.94;;;15.06;28.26
59829;BME280;45708;51.848;107.620;2023-04-28T00:55:14;94936.94;;;15.36;27.42
59829;BME280;45708;51.848;107.620;2023-04-28T01:00:15;94929.31;;;15.44;26.53
59829;BME280;45708;51.848;107.620;2023-04-28T01:05:17;94931.19;;;15.44;27.25
59829;BME280;45708;51.848;107.620;2023-04-28T01:10:19;94928.03;;;15.47;27.26
59829;BME280;45708;51.848;107.620;2023-04-28T01:15:20;94928.00;;;14.93;26.37
59829;BME280;45708;51.848;107.620;2023-04-28T01:20:21;94926.03;;;15.05;26.84
59829;BME280;45708;51.848;107.620;2023-04-28T01:25:22;94918.59;;;15.07;26.16
59829;BME280;45708;51.848;107.620;2023-04-28T01:30:22;94916.41;;;15.31;26.07
59829;BME280;45708;51.848;107.620;2023-04-28T01:35:23;94913.28;;;15.07;26.27
59829;BME280;45708;51.848;107.620;2023-04-28T01:40:24;94928.59;;;15.00;26.80
59829;BME280;45708;51.848;107.620;2023-04-28T01:45:26;94909.09;;;15.75;26.19
59829;BME280;45708;51.848;107.620;2023-04-28T01:50:27;94906.28;;;16.39;26.42
59829;BME280;45708;51.848;107.620;2023-04-28T01:55:28;94900.47;;;16.00;26.22
59829;BME280;45708;51.848;107.620;2023-04-28T02:00:29;94892.81;;;15.40;25.48
59829;BME280;45708;51.848;107.620;2023-04-28T02:05:30;94901.00;;;14.57;26.67
59829;BME280;45708;51.848;107.620;2023-04-28T02:10:31;94890.09;;;14.15;27.02
59829;BME280;45708;51.848;107.620;2023-04-28T02:15:32;94879.81;;;14.63;26.41
59829;BME280;45708;51.848;107.620;2023-04-28T02:20:32;94864.78;;;14.29;26.74
59829;BME280;45708;51.848;107.620;2023-04-28T02:25:33;94852.75;;;14.22;26.68
59829;BME280;45708;51.848;107.620;2023-04-28T02:30:34;94847.19;;;14.45;26.80
59829;BME280;45708;51.848;107.620;2023-04-28T02:35:35;94841.22;;;13.94;27.33
59829;BME280;45708;51.848;107.620;2023-04-28T02:40:36;94847.34;;;11.97;30.09
59829;BME280;45708;51.848;107.620;2023-04-28T02:45:36;94836.91;;;10.19;31.74
59829;BME280;45708;51.848;107.620;2023-04-28T02:50:37;94838.66;;;9.52;32.04
59829;BME280;45708;51.848;107.620;2023-04-28T02:55:38;94821.34;;;8.94;33.11
59829;BME280;45708;51.848;107.620;2023-04-28T03:00:39;94824.09;;;8.49;33.70
59829;BME280;45708;51.848;107.620;2023-04-28T03:05:40;94817.91;;;8.31;33.33
59829;BME280;45708;51.848;107.620;2023-04-28T03:10:40;94810.19;;;8.42;33.53
59829;BME280;45708;51.848;107.620;2023-04-28T03:15:41;94804.44;;;8.52;33.95
59829;BME280;45708;51.848;107.620;2023-04-28T03:20:42;94800.47;;;8.36;33.83
59829;BME280;45708;51.848;107.620;2023-04-28T03:25:43;94786.66;;;8.47;33.40
59829;BME280;45708;51.848;107.620;2023-04-28T03:30:43;94795.00;;;8.31;34.13
59829;BME280;45708;51.848;107.620;2023-04-28T03:35:44;94783.91;;;8.61;33.55
59829;BME280;45708;51.848;107.620;2023-04-28T03:40:45;94777.88;;;9.28;32.97
59829;BME280;45708;51.848;107.620;2023-04-28T03:45:46;94770.22;;;9.20;32.42
59829;BME280;45708;51.848;107.620;2023-04-28T03:50:46;94760.66;;;9.26;32.80
59829;BME280;45708;51.848;107.620;2023-04-28T03:55:47;94752.00;;;9.37;32.54
59829;BME280;45708;51.848;107.620;2023-04-28T04:00:48;94755.84;;;9.23;32.08
59829;BME280;45708;51.848;107.620;2023-04-28T04:05:49;94736.78;;;9.21;32.09
59829;BME280;45708;51.848;107.620;2023-04-28T04:10:50;94730.94;;;9.37;30.22
59829;BME280;45708;51.848;107.620;2023-04-28T04:15:50;94722.16;;;9.43;29.46
59829;BME280;45708;51.848;107.620;2023-04-28T04:20:51;94721.41;;;9.18;29.63
59829;BME280;45708;51.848;107.620;2023-04-28T04:25:52;94709.78;;;9.62;29.76
59829;BME280;45708;51.848;107.620;2023-04-28T04:30:53;94699.34;;;9.97;29.43
59829;BME280;45708;51.848;107.620;2023-04-28T04:35:54;94700.28;;;9.72;29.93
59829;BME280;45708;51.848;107.620;2023-04-28T04:40:55;94697.75;;;9.96;28.77
59829;BME280;45708;51.848;107.620;2023-04-28T04:45:56;94693.38;;;9.90;29.46
59829;BME280;45708;51.848;107.620;2023-04-28T04:50:57;94679.47;;;9.83;30.45
59829;BME280;45708;51.848;107.620;2023-04-28T04:55:57;94681.91;;;9.96;29.44
59829;BME280;45708;51.848;107.620;2023-04-28T05:00:58;94678.75;;;10.17;28.08
59829;BME280;45708;51.848;107.620;2023-04-28T05:05:59;94675.84;;;9.65;28.01
59829;BME280;45708;51.848;107.620;2023-04-28T05:11:00;94686.28;;;9.05;28.45
59829;BME280;45708;51.848;107.620;2023-04-28T05:16:01;94670.31;;;9.00;29.56
59829;BME280;45708;51.848;107.620;2023-04-28T05:21:02;94667.06;;;9.53;29.71
59829;BME280;45708;51.848;107.620;2023-04-28T05:26:03;94676.53;;;9.42;29.17
59829;BME280;45708;51.848;107.620;2023-04-28T05:31:04;94662.19;;;9.68;29.18
59829;BME280;45708;51.848;107.620;2023-04-28T05:36:05;94648.28;;;9.91;29.13
59829;BME280;45708;51.848;107.620;2023-04-28T05:41:06;94642.59;;;10.18;28.67
59829;BME280;45708;51.848;107.620;2023-04-28T05:46:07;94628.94;;;10.09;28.67
59829;BME280;45708;51.848;107.620;2023-04-28T05:51:08;94628.34;;;10.49;28.42
59829;BME280;45708;51.848;107.620;2023-04-28T05:56:09;94625.69;;;10.84;28.19
59829;BME280;45708;51.848;107.620;2023-04-28T06:01:10;94615.91;;;10.38;28.34
59829;BME280;45708;51.848;107.620;2023-04-28T06:06:11;94625.78;;;10.30;28.65
59829;BME280;45708;51.848;107.620;2023-04-28T06:11:12;94625.47;;;10.50;28.62
59829;BME280;45708;51.848;107.620;2023-04-28T06:16:14;94627.41;;;10.31;28.92
59829;BME280;45708;51.848;107.620;2023-04-28T06:21:15;94624.13;;;10.18;29.56
59829;BME280;45708;51.848;107.620;2023-04-28T06:26:16;94620.06;;;10.45;29.23
59829;BME280;45708;51.848;107.620;2023-04-28T06:31:17;94621.34;;;10.43;29.38
59829;BME280;45708;51.848;107.620;2023-04-28T06:36:18;94610.31;;;10.22;29.71
59829;BME280;45708;51.848;107.620;2023-04-28T06:41:19;94604.69;;;10.30;28.88
59829;BME280;45708;51.848;107.620;2023-04-28T06:46:19;94614.56;;;10.70;29.23
59829;BME280;45708;51.848;107.620;2023-04-28T06:51:20;94604.44;;;10.55;29.27
59829;BME280;45708;51.848;107.620;2023-04-28T06:56:21;94600.31;;;10.24;29.76
59829;BME280;45708;51.848;107.620;2023-04-28T07:01:22;94598.25;;;10.38;31.05
59829;BME280;45708;51.848;107.620;2023-04-28T07:06:23;94592.41;;;10.48;29.44
59829;BME280;45708;51.848;107.620;2023-04-28T07:11:24;94598.19;;;10.03;30.33
59829;BME280;45708;51.848;107.620;2023-04-28T07:16:25;94588.50;;;10.27;29.42
59829;BME280;45708;51.848;107.620;2023-04-28T07:21:31;94592.72;;;10.40;29.66
59829;BME280;45708;51.848;107.620;2023-04-28T07:26:32;94571.75;;;10.96;28.52
59829;BME280;45708;51.848;107.620;2023-04-28T07:31:34;94576.31;;;10.49;29.07
59829;BME280;45708;51.848;107.620;2023-04-28T07:36:35;94559.88;;;10.59;29.39
59829;BME280;45708;51.848;107.620;2023-04-28T07:41:37;94560.59;;;10.66;29.58
59829;BME280;45708;51.848;107.620;2023-04-28T07:46:37;94566.34;;;10.63;29.40
59829;BME280;45708;51.848;107.620;2023-04-28T07:51:38;94568.16;;;10.51;29.98
59829;BME280;45708;51.848;107.620;2023-04-28T07:56:39;94545.31;;;10.33;30.14
59829;BME280;45708;51.848;107.620;2023-04-28T08:01:40;94550.47;;;10.40;29.80
59829;BME280;45708;51.848;107.620;2023-04-28T08:06:41;94485.06;;;10.06;29.29
59829;BME280;45708;51.848;107.620;2023-04-28T08:11:50;94530.41;;;10.27;30.19
59829;BME280;45708;51.848;107.620;2023-04-28T08:16:51;94526.25;;;10.54;29.64
59829;BME280;45708;51.848;107.620;2023-04-28T08:21:52;94519.25;;;10.36;30.61
59829;BME280;45708;51.848;107.620;2023-04-28T08:26:54;94530.72;;;10.07;30.23
59829;BME280;45708;51.848;107.620;2023-04-28T08:31:55;94527.09;;;9.55;31.50
59829;BME280;45708;51.848;107.620;2023-04-28T08:36:57;94524.81;;;9.58;31.52
59829;BME280;45708;51.848;107.620;2023-04-28T08:41:58;94526.56;;;9.64;31.16
59829;BME280;45708;51.848;107.620;2023-04-28T08:47:00;94530.13;;;9.40;31.45
59829;BME280;45708;51.848;107.620;2023-04-28T08:52:11;94521.13;;;9.18;32.16
59829;BME280;45708;51.848;107.620;2023-04-28T08:57:12;94517.34;;;9.13;32.29
59829;BME280;45708;51.848;107.620;2023-04-28T09:02:13;94508.09;;;9.23;32.38
59829;BME280;45708;51.848;107.620;2023-04-28T09:07:14;94514.84;;;9.19;32.63
59829;BME280;45708;51.848;107.620;2023-04-28T09:12:17;94511.31;;;9.25;32.36
59829;BME280;45708;51.848;107.620;2023-04-28T09:17:17;94516.25;;;9.21;32.77
59829;BME280;45708;51.848;107.620;2023-04-28T09:22:26;94519.69;;;9.33;33.64
59829;BME280;45708;51.848;107.620;2023-04-28T09:27:28;94509.66;;;9.42;32.75
59829;BME280;45708;51.848;107.620;2023-04-28T09:32:28;94501.03;;;9.35;33.00
59829;BME280;45708;51.848;107.620;2023-04-28T09:37:30;94510.31;;;9.37;33.37
59829;BME280;45708;51.848;107.620;2023-04-28T09:42:37;94496.25;;;9.55;33.12
59829;BME280;45708;51.848;107.620;2023-04-28T09:47:43;94499.75;;;9.37;33.89
59829;BME280;45708;51.848;107.620;2023-04-28T09:52:55;94495.84;;;9.28;34.62
59829;BME280;45708;51.848;107.620;2023-04-28T09:57:58;94500.56;;;9.38;34.56
59829;BME280;45708;51.848;107.620;2023-04-28T10:03:03;94497.91;;;9.26;35.47
59829;BME280;45708;51.848;107.620;2023-04-28T10:08:05;94503.88;;;9.22;35.17
59829;BME280;45708;51.848;107.620;2023-04-28T10:13:06;94499.69;;;9.14;35.24
59829;BME280;45708;51.848;107.620;2023-04-28T10:18:09;94507.56;;;9.02;35.55
59829;BME280;45708;51.848;107.620;2023-04-28T10:28:26;94497.34;;;8.94;36.28
59829;BME280;45708;51.848;107.620;2023-04-28T10:33:28;94502.38;;;8.66;36.50
59829;BME280;45708;51.848;107.620;2023-04-28T10:38:29;94498.19;;;8.40;37.64
59829;BME280;45708;51.848;107.620;2023-04-28T10:43:48;94502.13;;;8.31;37.66
59829;BME280;45708;51.848;107.620;2023-04-28T10:58:51;94496.53;;;8.02;39.08
59829;BME280;45708;51.848;107.620;2023-04-28T11:19:21;94488.03;;;7.57;40.50
59829;BME280;45708;51.848;107.620;2023-04-28T11:24:24;94497.63;;;7.45;40.51
59829;BME280;45708;51.848;107.620;2023-04-28T11:29:43;94507.56;;;7.43;41.07
59829;BME280;45708;51.848;107.620;2023-04-28T11:34:50;94503.19;;;7.30;41.29
59829;BME280;45708;51.848;107.620;2023-04-28T11:39:51;94504.44;;;7.27;41.32
59829;BME280;45708;51.848;107.620;2023-04-28T11:44:53;94504.06;;;7.17;41.58
59829;BME280;45708;51.848;107.620;2023-04-28T11:49:53;94506.97;;;7.09;42.40
59829;BME280;45708;51.848;107.620;2023-04-28T11:54:58;94513.47;;;7.00;43.21
59829;BME280;45708;51.848;107.620;2023-04-28T12:00:15;94478.03;;;6.84;43.32
59829;BME280;45708;51.848;107.620;2023-04-28T12:05:16;94505.00;;;6.98;43.38
59829;BME280;45708;51.848;107.620;2023-04-28T12:10:18;94509.03;;;7.00;43.17
59829;BME280;45708;51.848;107.620;2023-04-28T12:15:20;94508.22;;;7.00;43.60
59829;BME280;45708;51.848;107.620;2023-04-28T12:20:35;94517.09;;;6.99;43.42
59829;BME280;45708;51.848;107.620;2023-04-28T12:25:45;94515.94;;;6.95;43.67
59829;BME280;45708;51.848;107.620;2023-04-28T12:30:46;94515.38;;;6.86;43.52
59829;BME280;45708;51.848;107.620;2023-04-28T12:35:47;94506.16;;;6.70;44.06
59829;BME280;45708;51.848;107.620;2023-04-28T12:40:48;94515.94;;;6.50;44.76
59829;BME280;45708;51.848;107.620;2023-04-28T12:45:49;94520.44;;;6.30;45.51
59829;BME280;45708;51.848;107.620;2023-04-28T12:50:50;94511.78;;;6.16;45.60
59829;BME280;45708;51.848;107.620;2023-04-28T12:55:53;94514.25;;;6.04;46.40
59829;BME280;45708;51.848;107.620;2023-04-28T13:00:53;94513.22;;;5.99;45.99
59829;BME280;45708;51.848;107.620;2023-04-28T13:05:55;94512.00;;;5.88;47.31
59829;BME280;45708;51.848;107.620;2023-04-28T13:10:56;94519.28;;;5.86;46.73
59829;BME280;45708;51.848;107.620;2023-04-28T13:15:57;94507.59;;;5.82;46.70
59829;BME280;45708;51.848;107.620;2023-04-28T13:20:58;94517.06;;;5.96;47.07
59829;BME280;45708;51.848;107.620;2023-04-28T13:25:58;94517.88;;;6.03;46.71
59829;BME280;45708;51.848;107.620;2023-04-28T13:30:59;94510.38;;;6.14;46.45
59829;BME280;45708;51.848;107.620;2023-04-28T13:36:00;94515.81;;;6.25;45.83
59829;BME280;45708;51.848;107.620;2023-04-28T13:41:03;94516.19;;;6.29;45.79
59829;BME280;45708;51.848;107.620;2023-04-28T13:46:03;94515.75;;;6.38;45.65
59829;BME280;45708;51.848;107.620;2023-04-28T13:51:05;94511.72;;;6.43;46.04
59829;BME280;45708;51.848;107.620;2023-04-28T13:56:06;94488.94;;;6.36;45.49
59829;BME280;45708;51.848;107.620;2023-04-28T14:01:07;94499.00;;;6.46;46.18
59829;BME280;45708;51.848;107.620;2023-04-28T14:06:08;94505.66;;;6.49;45.95
59829;BME280;45708;51.848;107.620;2023-04-28T14:11:09;94493.97;;;6.45;46.29
59829;BME280;45708;51.848;107.620;2023-04-28T14:16:10;94501.84;;;6.38;46.87
59829;BME280;45708;51.848;107.620;2023-04-28T14:21:11;94494.88;;;6.05;47.83
59829;BME280;45708;51.848;107.620;2023-04-28T14:26:12;94502.53;;;5.87;47.83
59829;BME280;45708;51.848;107.620;2023-04-28T14:31:13;94504.97;;;5.82;48.27
59829;BME280;45708;51.848;107.620;2023-04-28T14:36:14;94496.09;;;5.57;49.54
59829;BME280;45708;51.848;107.620;2023-04-28T14:41:14;94490.84;;;5.10;50.60
59829;BME280;45708;51.848;107.620;2023-04-28T14:46:15;94487.97;;;4.79;50.76
59829;BME280;45708;51.848;107.620;2023-04-28T14:51:16;94489.56;;;4.73;51.21
59829;BME280;45708;51.848;107.620;2023-04-28T14:56:17;94473.81;;;4.47;51.68
59829;BME280;45708;51.848;107.620;2023-04-28T15:01:18;94498.78;;;4.56;51.68
59829;BME280;45708;51.848;107.620;2023-04-28T15:06:19;94489.72;;;4.58;51.42
59829;BME280;45708;51.848;107.620;2023-04-28T15:11:20;94484.94;;;4.62;51.71
59829;BME280;45708;51.848;107.620;2023-04-28T15:16:21;94462.75;;;4.45;51.52
59829;BME280;45708;51.848;107.620;2023-04-28T15:21:22;94485.28;;;4.59;51.76
59829;BME280;45708;51.848;107.620;2023-04-28T15:26:23;94449.41;;;4.40;51.22
59829;BME280;45708;51.848;107.620;2023-04-28T15:31:24;94475.41;;;4.48;52.39
59829;BME280;45708;51.848;107.620;2023-04-28T15:36:25;94413.31;;;4.02;52.26
59829;BME280;45708;51.848;107.620;2023-04-28T15:41:25;94460.06;;;4.25;52.58
59829;BME280;45708;51.848;107.620;2023-04-28T15:46:29;94485.44;;;4.38;52.75
59829;BME280;45708;51.848;107.620;2023-04-28T15:51:30;94491.84;;;4.28;53.10
59829;BME280;45708;51.848;107.620;2023-04-28T15:56:31;94446.09;;;4.05;53.11
59829;BME280;45708;51.848;107.620;2023-04-28T16:01:32;94494.59;;;4.20;53.66
59829;BME280;45708;51.848;107.620;2023-04-28T16:06:33;94495.00;;;4.17;53.55
59829;BME280;45708;51.848;107.620;2023-04-28T16:11:34;94494.00;;;4.18;53.79
59829;BME280;45708;51.848;107.620;2023-04-28T16:16:35;94492.97;;;4.19;53.82
59829;BME280;45708;51.848;107.620;2023-04-28T16:21:35;94501.81;;;4.18;53.81
59829;BME280;45708;51.848;107.620;2023-04-28T16:26:36;94486.09;;;4.05;54.35
59829;BME280;45708;51.848;107.620;2023-04-28T16:31:37;94509.38;;;4.00;54.43
59829;BME280;45708;51.848;107.620;2023-04-28T16:36:38;94504.31;;;3.92;55.12
59829;BME280;45708;51.848;107.620;2023-04-28T16:41:39;94498.84;;;3.87;55.68
59829;BME280;45708;51.848;107.620;2023-04-28T16:46:39;94500.47;;;3.88;55.32
59829;BME280;45708;51.848;107.620;2023-04-28T16:51:54;94499.25;;;3.84;55.51
59829;BME280;45708;51.848;107.620;2023-04-28T16:56:58;94485.94;;;3.79;55.56
59829;BME280;45708;51.848;107.620;2023-04-28T17:02:00;94499.25;;;3.84;55.88
59829;BME280;45708;51.848;107.620;2023-04-28T17:07:01;94485.66;;;3.67;56.06
59829;BME280;45708;51.848;107.620;2023-04-28T17:12:02;94496.31;;;3.65;56.42
59829;BME280;45708;51.848;107.620;2023-04-28T17:17:02;94499.03;;;3.57;56.68
59829;BME280;45708;51.848;107.620;2023-04-28T17:22:03;94496.22;;;3.52;56.72
59829;BME280;45708;51.848;107.620;2023-04-28T17:27:04;94503.03;;;3.53;57.08
59829;BME280;45708;51.848;107.620;2023-04-28T17:32:05;94500.25;;;3.55;57.09
59829;BME280;45708;51.848;107.620;2023-04-28T17:37:06;94500.66;;;3.58;57.08
59829;BME280;45708;51.848;107.620;2023-04-28T17:42:06;94501.91;;;3.62;57.34
59829;BME280;45708;51.848;107.620;2023-04-28T17:47:07;94494.31;;;3.67;57.85
59829;BME280;45708;51.848;107.620;2023-04-28T17:52:08;94489.91;;;3.68;60.00
59829;BME280;45708;51.848;107.620;2023-04-28T17:57:09;94484.28;;;3.71;61.59
59829;BME280;45708;51.848;107.620;2023-04-28T18:02:10;94487.28;;;3.68;63.68
59829;BME280;45708;51.848;107.620;2023-04-28T18:07:10;94483.16;;;3.52;64.93
59829;BME280;45708;51.848;107.620;2023-04-28T18:12:11;94484.75;;;3.53;66.00
59829;BME280;45708;51.848;107.620;2023-04-28T18:17:12;94424.44;;;3.14;67.25
59829;BME280;45708;51.848;107.620;2023-04-28T18:22:13;94452.63;;;3.25;67.68
59829;BME280;45708;51.848;107.620;2023-04-28T18:27:13;94476.97;;;3.32;68.33
59829;BME280;45708;51.848;107.620;2023-04-28T18:32:15;94473.94;;;3.28;69.20
59829;BME280;45708;51.848;107.620;2023-04-28T18:37:16;94476.03;;;3.40;68.54
59829;BME280;45708;51.848;107.620;2023-04-28T18:42:17;94476.81;;;3.40;68.92
59829;BME280;45708;51.848;107.620;2023-04-28T18:47:18;94474.84;;;3.42;69.49
59829;BME280;45708;51.848;107.620;2023-04-28T18:52:18;94474.47;;;3.45;69.36
59829;BME280;45708;51.848;107.620;2023-04-28T18:57:19;94474.09;;;3.48;69.43
59829;BME280;45708;51.848;107.620;2023-04-28T19:02:20;94483.31;;;3.44;69.78
59829;BME280;45708;51.848;107.620;2023-04-28T19:07:21;94470.25;;;3.44;70.34
59829;BME280;45708;51.848;107.620;2023-04-28T19:12:21;94460.63;;;3.45;70.27
59829;BME280;45708;51.848;107.620;2023-04-28T19:17:23;94457.59;;;3.41;70.46
59829;BME280;45708;51.848;107.620;2023-04-28T19:22:34;94462.97;;;3.40;71.04
59829;BME280;45708;51.848;107.620;2023-04-28T19:27:37;94455.47;;;3.30;71.24
59829;BME280;45708;51.848;107.620;2023-04-28T19:32:42;94455.19;;;3.18;71.37
59829;BME280;45708;51.848;107.620;2023-04-28T19:37:42;94460.13;;;3.07;71.39
59829;BME280;45708;51.848;107.620;2023-04-28T19:42:43;94461.59;;;2.94;71.57
59829;BME280;45708;51.848;107.620;2023-04-28T19:47:44;94455.91;;;2.84;71.94
59829;BME280;45708;51.848;107.620;2023-04-28T19:52:45;94474.84;;;2.93;71.82
59829;BME280;45708;51.848;107.620;2023-04-28T19:57:46;94470.03;;;2.96;72.36
59829;BME280;45708;51.848;107.620;2023-04-28T20:02:46;94473.28;;;2.98;71.96
59829;BME280;45708;51.848;107.620;2023-04-28T20:07:48;94471.31;;;3.00;71.88
59829;BME280;45708;51.848;107.620;2023-04-28T20:12:49;94472.94;;;3.01;71.83
59829;BME280;45708;51.848;107.620;2023-04-28T20:17:50;94469.31;;;3.02;72.03
59829;BME280;45708;51.848;107.620;2023-04-28T20:22:50;94470.56;;;3.07;71.61
59829;BME280;45708;51.848;107.620;2023-04-28T20:27:51;94450.06;;;3.03;71.82
59829;BME280;45708;51.848;107.620;2023-04-28T20:32:52;94454.91;;;3.07;71.88
59829;BME280;45708;51.848;107.620;2023-04-28T20:37:52;94459.72;;;3.10;71.52
59829;BME280;45708;51.848;107.620;2023-04-28T20:42:53;94467.78;;;3.15;71.71
59829;BME280;45708;51.848;107.620;2023-04-28T20:47:54;94464.56;;;3.13;71.34
59829;BME280;45708;51.848;107.620;2023-04-28T20:52:55;94462.97;;;3.12;71.67
59829;BME280;45708;51.848;107.620;2023-04-28T20:57:56;94450.28;;;3.09;71.65
59829;BME280;45708;51.848;107.620;2023-04-28T21:02:56;94448.53;;;3.16;71.91
59829;BME280;45708;51.848;107.620;2023-04-28T21:07:59;94444.69;;;3.12;71.63
59829;BME280;45708;51.848;107.620;2023-04-28T21:13:00;94455.91;;;2.84;72.40
59829;BME280;45708;51.848;107.620;2023-04-28T21:18:01;94461.81;;;2.35;72.92
59829;BME280;45708;51.848;107.620;2023-04-28T21:23:01;94471.28;;;2.22;72.83
59829;BME280;45708;51.848;107.620;2023-04-28T21:28:02;94481.09;;;2.05;73.27
59829;BME280;45708;51.848;107.620;2023-04-28T21:33:03;94475.47;;;2.01;72.78
59829;BME280;45708;51.848;107.620;2023-04-28T21:38:04;94468.63;;;1.86;71.69
59829;BME280;45708;51.848;107.620;2023-04-28T21:43:05;94490.72;;;1.75;71.01
59829;BME280;45708;51.848;107.620;2023-04-28T21:48:05;94474.13;;;1.61;70.30
59829;BME280;45708;51.848;107.620;2023-04-28T21:53:06;94476.63;;;1.69;69.25
59829;BME280;45708;51.848;107.620;2023-04-28T21:58:07;94492.25;;;1.69;67.85
59829;BME280;45708;51.848;107.620;2023-04-28T22:03:08;94486.84;;;1.71;68.39
59829;BME280;45708;51.848;107.620;2023-04-28T22:08:10;94484.34;;;1.77;69.98
59829;BME280;45708;51.848;107.620;2023-04-28T22:13:11;94496.38;;;1.78;69.66
59829;BME280;45708;51.848;107.620;2023-04-28T22:18:12;94497.91;;;1.73;66.58
59829;BME280;45708;51.848;107.620;2023-04-28T22:23:13;94497.97;;;1.50;64.29
59829;BME280;45708;51.848;107.620;2023-04-28T22:28:14;94491.47;;;1.31;64.21
59829;BME280;45708;51.848;107.620;2023-04-28T22:33:14;94504.25;;;1.41;64.25
59829;BME280;45708;51.848;107.620;2023-04-28T22:38:15;94507.75;;;1.48;63.70
59829;BME280;45708;51.848;107.620;2023-04-28T22:43:16;94514.03;;;1.53;63.73
59829;BME280;45708;51.848;107.620;2023-04-28T22:48:17;94498.00;;;1.65;63.34
59829;BME280;45708;51.848;107.620;2023-04-28T22:53:17;94496.47;;;1.85;62.03
59829;BME280;45708;51.848;107.620;2023-04-28T22:58:18;94495.00;;;1.97;61.52
59829;BME280;45708;51.848;107.620;2023-04-28T23:03:19;94497.50;;;2.20;59.71
59829;BME280;45708;51.848;107.620;2023-04-28T23:08:21;94497.13;;;2.38;58.32
59829;BME280;45708;51.848;107.620;2023-04-28T23:13:21;94496.38;;;2.80;58.53
59829;BME280;45708;51.848;107.620;2023-04-28T23:18:22;94509.19;;;3.18;57.38
59829;BME280;45708;51.848;107.620;2023-04-28T23:23:23;94514.34;;;3.11;55.72
59829;BME280;45708;51.848;107.620;2023-04-28T23:28:24;94504.97;;;2.95;56.01
59829;BME280;45708;51.848;107.620;2023-04-28T23:33:25;94500.25;;;3.05;54.67
59829;BME280;45708;51.848;107.620;2023-04-28T23:38:26;94511.69;;;3.82;51.94
59829;BME280;45708;51.848;107.620;2023-04-28T23:43:26;94455.25;;;3.59;50.38
59829;BME280;45708;51.848;107.620;2023-04-28T23:48:27;94502.63;;;4.19;49.93
59829;BME280;45708;51.848;107.620;2023-04-28T23:53:28;94479.69;;;3.80;48.69
59829;BME280;45708;51.848;107.620;2023-04-28T23:58:29;94515.88;;;3.48;48.71
